createdAt,value
2023-12-03T00:01:22.489Z,5.50
2023-12-03T00:03:50.018Z,5.07
2023-12-03T00:06:17.741Z,5.47
2023-12-03T00:08:50.840Z,7.22
2023-12-03T00:11:19.148Z,5.18
2023-12-03T00:13:46.558Z,5.75
2023-12-03T00:16:14.073Z,5.05
2023-12-03T00:18:41.540Z,7.63
2023-12-03T00:21:09.389Z,5.30
2023-12-03T00:23:36.828Z,6.43
2023-12-03T00:26:04.489Z,5.65
2023-12-03T00:28:31.897Z,5.60
2023-12-03T00:30:59.205Z,4.68
2023-12-03T00:33:27.229Z,6.07
2023-12-03T00:35:54.861Z,4.85
2023-12-03T00:38:23.072Z,4.97
2023-12-03T00:40:50.459Z,4.50
2023-12-03T00:43:17.840Z,5.05
2023-12-03T00:45:45.345Z,5.05
2023-12-03T00:48:12.927Z,4.35
2023-12-03T00:50:40.822Z,4.40
2023-12-03T00:53:08.299Z,5.68
2023-12-03T00:55:35.669Z,5.90
2023-12-03T00:58:03.165Z,5.47
2023-12-03T01:00:30.586Z,5.85
2023-12-03T01:02:58.221Z,7.25
2023-12-03T01:05:26.216Z,5.72
2023-12-03T01:07:53.651Z,5.72
2023-12-03T01:10:21.284Z,5.45
2023-12-03T01:12:48.802Z,7.60
2023-12-03T01:15:16.377Z,4.85
2023-12-03T01:17:44.075Z,5.40
2023-12-03T01:20:11.930Z,6.07
2023-12-03T01:22:39.332Z,6.22
2023-12-03T01:25:07.428Z,7.15
2023-12-03T01:27:34.866Z,5.80
2023-12-03T01:30:02.298Z,5.55
2023-12-03T01:32:29.637Z,5.18
2023-12-03T01:34:57.131Z,6.15
2023-12-03T01:37:24.619Z,6.10
2023-12-03T01:39:52.197Z,6.43
2023-12-03T01:42:21.274Z,6.18
2023-12-03T01:44:48.722Z,6.43
2023-12-03T01:47:16.402Z,6.28
2023-12-03T01:49:43.824Z,5.95
2023-12-03T01:52:12.349Z,6.05
2023-12-03T01:54:44.210Z,6.15
2023-12-03T01:57:12.489Z,7.63
2023-12-03T01:59:39.914Z,6.28
2023-12-03T02:02:07.330Z,6.45
2023-12-03T02:04:34.769Z,7.03
2023-12-03T02:07:02.288Z,6.60
2023-12-03T02:09:30.895Z,6.03
2023-12-03T02:11:58.464Z,6.18
2023-12-03T02:14:25.870Z,6.68
2023-12-03T02:16:53.246Z,5.88
2023-12-03T02:19:20.839Z,6.60
2023-12-03T02:21:48.354Z,5.93
2023-12-03T02:24:15.806Z,6.30
2023-12-03T02:26:43.344Z,7.78
2023-12-03T02:29:10.854Z,6.68
2023-12-03T02:31:38.264Z,6.25
2023-12-03T02:34:12.785Z,6.97
2023-12-03T02:36:40.805Z,5.65
2023-12-03T02:39:08.346Z,5.78
2023-12-03T02:41:35.789Z,6.90
2023-12-03T02:44:03.168Z,7.53
2023-12-03T02:46:30.594Z,6.05
2023-12-03T02:48:58.115Z,5.30
2023-12-03T02:51:25.589Z,5.30
2023-12-03T02:53:52.980Z,5.40
2023-12-03T02:56:20.428Z,7.55
2023-12-03T02:58:47.883Z,6.82
2023-12-03T03:01:15.334Z,6.50
2023-12-03T03:03:42.769Z,6.90
2023-12-03T03:06:10.301Z,6.95
2023-12-03T03:08:37.725Z,6.80
2023-12-03T03:11:05.274Z,6.90
2023-12-03T03:13:32.636Z,7.25
2023-12-03T03:16:00.004Z,9.20
2023-12-03T03:18:27.487Z,7.63
2023-12-03T03:20:54.874Z,6.53
2023-12-03T03:23:22.319Z,8.80
2023-12-03T03:25:49.702Z,6.47
2023-12-03T03:28:17.053Z,7.05
2023-12-03T03:30:44.682Z,7.85
2023-12-03T03:33:12.253Z,7.88
2023-12-03T03:35:39.656Z,7.30
2023-12-03T03:38:07.154Z,7.25
2023-12-03T03:40:34.509Z,6.65
2023-12-03T03:43:01.862Z,6.72
2023-12-03T03:45:29.247Z,7.20
2023-12-03T03:47:56.739Z,6.53
2023-12-03T03:50:24.175Z,6.47
2023-12-03T03:52:51.539Z,6.97
2023-12-03T03:55:19.010Z,6.28
2023-12-03T03:57:46.517Z,8.65
2023-12-03T04:00:14.696Z,7.93
2023-12-03T04:02:42.098Z,6.72
2023-12-03T04:05:09.810Z,5.32
2023-12-03T04:07:37.330Z,5.78
2023-12-03T04:10:06.322Z,6.30
2023-12-03T04:12:33.759Z,6.50
2023-12-03T04:15:01.176Z,6.53
2023-12-03T04:17:28.713Z,5.55
2023-12-03T04:19:56.148Z,6.03
2023-12-03T04:22:24.540Z,5.57
2023-12-03T04:24:52.120Z,5.93
2023-12-03T04:27:19.567Z,5.38
2023-12-03T04:29:46.950Z,7.20
2023-12-03T04:32:14.394Z,7.78
2023-12-03T04:34:42.125Z,6.22
2023-12-03T04:37:10.107Z,6.25
2023-12-03T04:39:37.473Z,4.93
2023-12-03T04:42:05.416Z,4.90
2023-12-03T04:44:32.854Z,4.95
2023-12-03T04:47:00.226Z,5.90
2023-12-03T04:49:27.726Z,5.38
2023-12-03T04:51:55.229Z,5.22
2023-12-03T04:54:22.708Z,6.22
2023-12-03T04:56:50.069Z,5.45
2023-12-03T04:59:17.925Z,6.10
2023-12-03T05:01:46.324Z,6.35
2023-12-03T05:04:13.823Z,5.50
2023-12-03T05:06:41.415Z,4.82
2023-12-03T05:09:10.693Z,4.82
2023-12-03T05:11:41.863Z,6.45
2023-12-03T05:14:09.740Z,5.50
2023-12-03T05:16:37.499Z,4.72
2023-12-03T05:19:05.046Z,4.55
2023-12-03T05:21:32.658Z,5.65
2023-12-03T05:24:00.294Z,5.22
2023-12-03T05:26:27.710Z,5.85
2023-12-03T05:28:55.086Z,4.60
2023-12-03T05:31:22.570Z,5.88
2023-12-03T05:33:50.015Z,4.90
2023-12-03T05:36:22.236Z,5.20
2023-12-03T05:38:52.823Z,4.85
2023-12-03T05:41:20.180Z,6.82
2023-12-03T05:43:47.533Z,4.95
2023-12-03T05:46:14.961Z,5.32
2023-12-03T05:48:43.709Z,5.18
2023-12-03T05:51:11.869Z,5.43
2023-12-03T05:53:39.392Z,6.72
2023-12-03T05:56:08.006Z,6.85
2023-12-03T05:58:35.786Z,6.13
2023-12-03T06:01:03.320Z,6.22
2023-12-03T06:03:30.733Z,5.40
2023-12-03T06:05:58.230Z,5.47
2023-12-03T06:08:25.617Z,6.13
2023-12-03T06:10:53.737Z,5.32
2023-12-03T06:13:21.218Z,5.45
2023-12-03T06:15:48.695Z,4.95
2023-12-03T06:18:16.699Z,5.20
2023-12-03T06:20:44.158Z,6.28
2023-12-03T06:23:13.545Z,5.65
2023-12-03T06:25:42.020Z,5.55
2023-12-03T06:28:09.565Z,5.72
2023-12-03T06:30:37.620Z,5.63
2023-12-03T06:33:05.095Z,5.00
2023-12-03T06:35:32.915Z,5.20
2023-12-03T06:38:00.703Z,5.30
2023-12-03T06:40:28.142Z,6.28
2023-12-03T06:42:55.744Z,5.13
2023-12-03T06:45:23.172Z,5.45
2023-12-03T06:47:51.031Z,5.22
2023-12-03T06:50:18.600Z,5.97
2023-12-03T06:52:46.802Z,5.90
2023-12-03T06:55:14.322Z,5.55
2023-12-03T06:57:42.023Z,5.63
2023-12-03T07:00:10.908Z,6.13
2023-12-03T07:02:38.490Z,5.97
2023-12-03T07:05:06.503Z,6.38
2023-12-03T07:07:34.064Z,5.90
2023-12-03T07:10:01.901Z,6.97
2023-12-03T07:12:29.631Z,7.15
2023-12-03T07:14:57.445Z,6.43
2023-12-03T07:17:25.059Z,8.05
2023-12-03T07:19:52.649Z,6.78
2023-12-03T07:22:20.148Z,6.97
2023-12-03T07:24:47.669Z,7.18
2023-12-03T07:27:20.462Z,7.10
2023-12-03T07:29:59.517Z,6.88
2023-12-03T07:32:27.673Z,6.90
2023-12-03T07:34:55.240Z,7.03
2023-12-03T07:37:22.849Z,7.72
2023-12-03T07:39:50.361Z,7.15
2023-12-03T07:42:18.457Z,7.32
2023-12-03T07:44:45.961Z,7.60
2023-12-03T07:47:13.512Z,6.97
2023-12-03T07:49:42.044Z,7.30
2023-12-03T07:52:09.729Z,6.72
2023-12-03T07:54:37.236Z,7.30
2023-12-03T07:57:06.408Z,7.80
2023-12-03T07:59:33.824Z,6.55
2023-12-03T08:02:01.612Z,7.47
2023-12-03T08:04:29.108Z,8.23
2023-12-03T08:06:56.656Z,7.80
2023-12-03T08:09:25.463Z,7.97
2023-12-03T08:11:54.422Z,7.38
2023-12-03T08:14:22.028Z,8.52
2023-12-03T08:16:49.632Z,7.72
2023-12-03T08:19:17.257Z,7.90
2023-12-03T08:21:45.035Z,7.70
2023-12-03T08:24:12.697Z,7.25
2023-12-03T08:26:40.345Z,7.80
2023-12-03T08:29:08.161Z,7.80
2023-12-03T08:31:35.866Z,7.80
2023-12-03T08:34:03.915Z,8.05
2023-12-03T08:36:32.614Z,8.52
2023-12-03T08:39:02.867Z,7.85
2023-12-03T08:41:30.334Z,8.88
2023-12-03T08:43:57.897Z,6.18
2023-12-03T08:46:28.529Z,6.65
2023-12-03T08:48:56.628Z,6.28
2023-12-03T08:51:24.355Z,6.28
2023-12-03T08:53:52.122Z,5.28
2023-12-03T08:56:19.641Z,5.93
2023-12-03T08:58:47.139Z,5.20
2023-12-03T09:01:15.507Z,5.68
2023-12-03T09:03:44.937Z,5.18
2023-12-03T09:06:14.468Z,5.25
2023-12-03T09:08:43.805Z,5.47
2023-12-03T09:11:17.738Z,5.82
2023-12-03T09:13:45.244Z,5.88
2023-12-03T09:16:12.792Z,5.35
2023-12-03T09:18:40.665Z,4.95
2023-12-03T09:21:10.589Z,4.30
2023-12-03T09:23:38.503Z,4.07
2023-12-03T09:26:06.578Z,3.60
2023-12-03T09:28:35.490Z,4.15
2023-12-03T09:31:03.130Z,3.42
2023-12-03T09:33:30.720Z,4.97
2023-12-03T09:35:58.310Z,4.72
2023-12-03T09:38:25.900Z,4.50
2023-12-03T09:40:56.567Z,4.70
2023-12-03T09:43:28.201Z,5.70
2023-12-03T09:45:57.382Z,3.17
2023-12-03T09:48:27.091Z,3.55
2023-12-03T09:50:56.146Z,3.83
2023-12-03T09:53:25.107Z,4.60
2023-12-03T09:55:54.631Z,3.65
2023-12-03T09:58:22.103Z,2.95
2023-12-03T10:00:49.643Z,3.47
2023-12-03T10:03:17.132Z,3.13
2023-12-03T10:05:46.497Z,3.40
2023-12-03T10:08:15.269Z,3.78
2023-12-03T10:10:47.571Z,3.60
2023-12-03T10:13:15.135Z,4.25
2023-12-03T10:15:42.591Z,3.35
2023-12-03T10:18:10.415Z,5.05
2023-12-03T10:20:38.239Z,5.80
2023-12-03T10:23:15.823Z,2.75
2023-12-03T10:25:43.391Z,3.08
2023-12-03T10:28:11.317Z,3.10
2023-12-03T10:30:38.863Z,4.43
2023-12-03T10:33:06.533Z,4.20
2023-12-03T10:35:36.168Z,3.42
2023-12-03T10:38:09.811Z,4.15
2023-12-03T10:40:37.801Z,5.93
2023-12-03T10:43:05.267Z,4.68
2023-12-03T10:45:34.016Z,3.53
2023-12-03T10:48:02.696Z,4.20
2023-12-03T10:50:31.630Z,4.07
2023-12-03T10:53:03.098Z,3.88
2023-12-03T10:55:30.686Z,4.07
2023-12-03T10:58:04.480Z,2.38
2023-12-03T11:00:40.139Z,3.25
2023-12-03T11:03:21.443Z,4.22
2023-12-03T11:05:54.629Z,6.13
2023-12-03T11:08:24.382Z,4.43
2023-12-03T11:10:52.309Z,2.58
2023-12-03T11:13:22.880Z,3.45
2023-12-03T11:15:56.060Z,3.77
2023-12-03T11:18:25.833Z,3.03
2023-12-03T11:20:59.749Z,5.05
2023-12-03T11:23:54.471Z,3.03
2023-12-03T11:26:21.816Z,4.00
2023-12-03T11:29:01.126Z,2.28
2023-12-03T11:31:28.766Z,2.30
2023-12-03T11:34:01.889Z,3.22
2023-12-03T11:36:51.122Z,2.70
2023-12-03T11:39:21.791Z,5.07
2023-12-03T11:42:07.306Z,6.70
2023-12-03T11:44:35.138Z,3.72
2023-12-03T11:47:08.371Z,3.05
2023-12-03T11:49:38.307Z,3.00
2023-12-03T11:52:06.989Z,3.38
2023-12-03T11:54:51.012Z,2.90
2023-12-03T11:57:18.628Z,3.55
2023-12-03T11:59:46.324Z,3.53
2023-12-03T12:02:15.283Z,2.92
2023-12-03T12:04:43.164Z,2.20
2023-12-03T12:07:14.434Z,4.78
2023-12-03T12:09:42.217Z,3.28
2023-12-03T12:12:10.369Z,3.15
2023-12-03T12:14:37.941Z,3.42
2023-12-03T12:17:09.310Z,3.92
2023-12-03T12:19:36.948Z,3.67
2023-12-03T12:22:04.407Z,2.65
2023-12-03T12:24:31.958Z,2.72
2023-12-03T12:27:00.026Z,4.38
2023-12-03T12:29:27.955Z,3.42
2023-12-03T12:31:56.371Z,3.20
2023-12-03T12:34:29.329Z,3.45
2023-12-03T12:37:09.629Z,4.28
2023-12-03T12:39:37.391Z,4.97
2023-12-03T12:42:05.712Z,3.03
2023-12-03T12:44:46.760Z,5.15
2023-12-03T12:47:20.987Z,2.97
2023-12-03T12:49:57.062Z,2.97
2023-12-03T12:52:25.827Z,2.50
2023-12-03T12:55:03.685Z,4.00
2023-12-03T12:57:34.697Z,4.20
2023-12-03T13:00:02.198Z,2.20
2023-12-03T13:02:31.104Z,2.20
2023-12-03T13:04:58.563Z,3.20
2023-12-03T13:07:26.034Z,3.55
2023-12-03T13:09:55.447Z,3.58
2023-12-03T13:12:23.792Z,2.60
2023-12-03T13:14:52.078Z,3.60
2023-12-03T13:17:19.623Z,2.88
2023-12-03T13:19:47.135Z,3.13
2023-12-03T13:22:15.061Z,2.42
2023-12-03T13:24:42.682Z,3.50
2023-12-03T13:27:10.572Z,2.70
2023-12-03T13:29:37.974Z,2.65
2023-12-03T13:32:05.937Z,3.35
2023-12-03T13:34:33.367Z,2.67
2023-12-03T13:37:01.597Z,2.10
2023-12-03T13:39:29.024Z,2.95
2023-12-03T13:41:56.945Z,3.08
2023-12-03T13:44:26.976Z,3.60
2023-12-03T13:46:58.467Z,2.50
2023-12-03T13:49:26.061Z,2.88
2023-12-03T13:51:55.920Z,2.88
2023-12-03T13:54:23.585Z,2.53
2023-12-03T13:56:51.990Z,2.97
2023-12-03T13:59:19.667Z,3.40
2023-12-03T14:01:49.166Z,3.05
2023-12-03T14:04:20.506Z,4.38
2023-12-03T14:06:48.050Z,2.47
2023-12-03T14:09:16.361Z,3.38
2023-12-03T14:11:44.508Z,2.78
2023-12-03T14:14:12.209Z,3.70
2023-12-03T14:16:39.780Z,3.05
2023-12-03T14:19:10.697Z,4.32
2023-12-03T14:21:42.817Z,3.40
2023-12-03T14:24:10.358Z,3.38
2023-12-03T14:26:37.828Z,2.97
2023-12-03T14:29:05.302Z,3.47
2023-12-03T14:31:33.217Z,3.33
2023-12-03T14:34:10.648Z,4.60
2023-12-03T14:36:38.292Z,4.47
2023-12-03T14:39:05.986Z,3.50
2023-12-03T14:41:33.551Z,3.75
2023-12-03T14:44:01.907Z,4.22
2023-12-03T14:46:34.158Z,3.30
2023-12-03T14:49:02.645Z,3.88
2023-12-03T14:51:30.713Z,3.38
2023-12-03T14:53:58.362Z,3.55
2023-12-03T14:56:28.624Z,5.35
2023-12-03T14:58:59.445Z,3.28
2023-12-03T15:01:31.296Z,3.55
2023-12-03T15:03:59.025Z,3.40
2023-12-03T15:06:26.912Z,3.40
2023-12-03T15:08:54.414Z,3.38
2023-12-03T15:11:21.850Z,4.00
2023-12-03T15:13:49.972Z,4.70
2023-12-03T15:16:18.058Z,4.30
2023-12-03T15:18:45.975Z,3.47
2023-12-03T15:21:13.651Z,4.10
2023-12-03T15:23:42.311Z,5.22
2023-12-03T15:26:11.640Z,4.95
2023-12-03T15:28:39.162Z,7.30
2023-12-03T15:31:07.547Z,4.60
2023-12-03T15:33:35.126Z,4.20
2023-12-03T15:36:02.702Z,8.20
2023-12-03T15:38:30.181Z,5.18
2023-12-03T15:40:57.809Z,6.68
2023-12-03T15:43:33.838Z,4.93
2023-12-03T15:46:06.016Z,4.85
2023-12-03T15:48:36.132Z,5.88
2023-12-03T15:51:04.283Z,7.15
2023-12-03T15:53:34.086Z,6.18
2023-12-03T15:56:01.737Z,6.53
2023-12-03T15:58:33.405Z,7.82
2023-12-03T16:01:01.066Z,7.50
2023-12-03T16:03:28.837Z,7.40
2023-12-03T16:05:57.204Z,6.80
2023-12-03T16:08:24.996Z,6.97
2023-12-03T16:10:52.607Z,7.18
2023-12-03T16:13:20.171Z,6.40
2023-12-03T16:15:47.693Z,7.22
2023-12-03T16:18:15.296Z,6.15
2023-12-03T16:20:42.862Z,8.45
2023-12-03T16:23:10.459Z,11.70
2023-12-03T16:25:38.044Z,8.48
2023-12-03T16:28:05.493Z,12.27
2023-12-03T16:30:32.934Z,7.82
2023-12-03T16:33:00.717Z,9.05
2023-12-03T16:35:28.223Z,8.20
2023-12-03T16:37:55.913Z,10.07
2023-12-03T16:40:24.026Z,10.70
2023-12-03T16:42:51.540Z,9.23
2023-12-03T16:45:18.977Z,12.85
2023-12-03T16:47:46.441Z,15.52
2023-12-03T16:50:14.055Z,15.32
2023-12-03T16:52:41.475Z,10.70
2023-12-03T16:55:09.189Z,10.45
2023-12-03T16:57:37.056Z,9.25
2023-12-03T17:00:05.572Z,12.65
2023-12-03T17:02:34.156Z,9.48
2023-12-03T17:05:01.660Z,11.52
2023-12-03T17:07:29.213Z,9.57
2023-12-03T17:10:00.667Z,11.13
2023-12-03T17:12:28.577Z,14.80
2023-12-03T17:14:56.762Z,9.13
2023-12-03T17:17:26.400Z,8.77
2023-12-03T17:19:57.468Z,10.82
2023-12-03T17:22:25.157Z,8.95
2023-12-03T17:24:53.725Z,9.90
2023-12-03T17:27:21.088Z,7.95
2023-12-03T17:29:48.566Z,9.10
2023-12-03T17:32:15.989Z,8.32
2023-12-03T17:34:43.485Z,8.07
2023-12-03T17:37:10.883Z,7.75
2023-12-03T17:39:39.288Z,9.05
2023-12-03T17:42:09.218Z,8.75
2023-12-03T17:44:36.721Z,8.35
2023-12-03T17:47:04.303Z,7.93
2023-12-03T17:49:31.850Z,7.82
2023-12-03T17:51:59.507Z,9.52
2023-12-03T17:54:27.304Z,8.55
2023-12-03T17:56:55.042Z,11.43
2023-12-03T17:59:22.590Z,10.90
2023-12-03T18:01:50.322Z,9.45
2023-12-03T18:04:18.155Z,11.52
2023-12-03T18:06:45.808Z,9.23
2023-12-03T18:09:13.872Z,10.40
2023-12-03T18:11:44.528Z,8.27
2023-12-03T18:14:12.545Z,9.98
2023-12-03T18:16:40.200Z,9.18
2023-12-03T18:19:07.832Z,7.53
2023-12-03T18:21:35.803Z,9.75
2023-12-03T18:24:03.615Z,6.63
2023-12-03T18:26:31.237Z,7.22
2023-12-03T18:28:58.776Z,7.63
2023-12-03T18:31:26.514Z,10.13
2023-12-03T18:33:54.493Z,7.10
2023-12-03T18:36:22.297Z,7.85
2023-12-03T18:38:51.670Z,8.05
2023-12-03T18:41:23.971Z,9.88
2023-12-03T18:43:52.478Z,7.18
2023-12-03T18:46:21.286Z,8.25
2023-12-03T18:48:48.979Z,10.55
2023-12-03T18:51:16.902Z,8.43
2023-12-03T18:53:44.597Z,7.72
2023-12-03T18:56:14.645Z,8.40
2023-12-03T18:58:42.658Z,7.85
2023-12-03T19:01:11.106Z,7.32
2023-12-03T19:03:38.720Z,7.82
2023-12-03T19:06:06.540Z,7.68
2023-12-03T19:08:35.963Z,11.48
2023-12-03T19:11:07.780Z,12.23
2023-12-03T19:13:35.800Z,9.38
2023-12-03T19:16:03.839Z,8.90
2023-12-03T19:18:31.341Z,9.82
2023-12-03T19:20:58.887Z,9.05
2023-12-03T19:23:26.380Z,10.35
2023-12-03T19:25:54.238Z,9.32
2023-12-03T19:28:22.701Z,10.57
2023-12-03T19:30:51.615Z,9.18
2023-12-03T19:33:19.138Z,10.30
2023-12-03T19:35:48.116Z,9.60
2023-12-03T19:38:15.642Z,9.38
2023-12-03T19:40:43.193Z,9.23
2023-12-03T19:43:10.646Z,10.65
2023-12-03T19:45:38.759Z,8.60
2023-12-03T19:48:06.674Z,10.45
2023-12-03T19:50:35.544Z,8.88
2023-12-03T19:53:03.846Z,9.20
2023-12-03T19:55:31.367Z,10.60
2023-12-03T19:57:59.066Z,9.70
2023-12-03T20:00:26.614Z,11.25
2023-12-03T20:02:54.536Z,13.20
2023-12-03T20:05:22.119Z,11.32
2023-12-03T20:07:49.564Z,10.82
2023-12-03T20:10:16.997Z,12.55
2023-12-03T20:12:44.687Z,0.32
2023-12-03T20:15:20.909Z,13.68
2023-12-03T20:17:52.556Z,11.30
2023-12-03T20:20:20.145Z,10.50
2023-12-03T20:22:47.676Z,12.15
2023-12-03T20:25:15.278Z,10.43
2023-12-03T20:27:42.814Z,12.10
2023-12-03T20:30:13.643Z,13.93
2023-12-03T20:32:41.756Z,12.23
2023-12-03T20:35:09.266Z,13.45
2023-12-03T20:37:36.795Z,13.68
2023-12-03T20:40:04.752Z,9.10
2023-12-03T20:42:33.116Z,8.75
2023-12-03T20:45:00.871Z,9.57
2023-12-03T20:47:29.032Z,10.75
2023-12-03T20:49:57.949Z,9.68
2023-12-03T20:52:25.503Z,9.80
2023-12-03T20:55:01.274Z,10.82
2023-12-03T20:57:28.801Z,9.43
2023-12-03T20:59:57.758Z,9.77
2023-12-03T21:02:25.901Z,10.68
2023-12-03T21:04:54.024Z,9.65
2023-12-03T21:07:22.277Z,9.90
2023-12-03T21:09:49.946Z,10.38
2023-12-03T21:12:17.336Z,10.63
2023-12-03T21:14:44.827Z,11.45
2023-12-03T21:17:12.251Z,11.65
2023-12-03T21:19:39.937Z,11.55
2023-12-03T21:22:07.754Z,12.23
2023-12-03T21:24:35.533Z,8.55
2023-12-03T21:27:03.213Z,9.98
2023-12-03T21:29:31.021Z,10.13
2023-12-03T21:32:00.170Z,9.60
2023-12-03T21:34:27.913Z,9.00
2023-12-03T21:36:57.131Z,8.90
2023-12-03T21:39:24.528Z,8.40
2023-12-03T21:41:52.247Z,9.02
2023-12-03T21:44:20.694Z,10.23
2023-12-03T21:46:48.606Z,9.23
2023-12-03T21:49:16.164Z,8.45
2023-12-03T21:51:44.493Z,8.20
2023-12-03T21:54:11.838Z,9.63
2023-12-03T21:56:39.393Z,9.93
2023-12-03T21:59:07.813Z,10.30
2023-12-03T22:01:35.313Z,9.82
2023-12-03T22:04:02.815Z,9.60
2023-12-03T22:06:30.431Z,10.88
2023-12-03T22:08:58.036Z,10.23
2023-12-03T22:11:25.411Z,8.20
2023-12-03T22:13:52.937Z,9.73
2023-12-03T22:16:20.280Z,8.02
2023-12-03T22:18:47.738Z,9.05
2023-12-03T22:21:15.353Z,10.18
2023-12-03T22:23:42.823Z,8.68
2023-12-03T22:26:10.270Z,12.35
2023-12-03T22:28:37.620Z,7.82
2023-12-03T22:31:05.290Z,9.82
2023-12-03T22:33:32.870Z,11.10
2023-12-03T22:36:02.827Z,8.57
2023-12-03T22:38:31.204Z,0.35
2023-12-03T22:40:59.610Z,10.18
2023-12-03T22:43:27.000Z,9.23
2023-12-03T22:45:55.067Z,9.30
2023-12-03T22:48:22.693Z,8.93
2023-12-03T22:50:50.689Z,7.93
2023-12-03T22:53:18.073Z,10.07
2023-12-03T22:55:46.091Z,9.93
2023-12-03T22:58:13.649Z,10.77
2023-12-03T23:00:41.026Z,9.52
2023-12-03T23:03:08.912Z,11.18
2023-12-03T23:05:39.259Z,8.65
2023-12-03T23:08:08.095Z,11.30
2023-12-03T23:10:35.765Z,10.18
2023-12-03T23:13:03.550Z,9.32
2023-12-03T23:15:31.623Z,8.40
2023-12-03T23:17:59.651Z,11.35
2023-12-03T23:20:27.687Z,8.93
2023-12-03T23:22:56.352Z,8.07
2023-12-03T23:25:23.904Z,9.05
2023-12-03T23:27:51.412Z,7.47
2023-12-03T23:30:18.942Z,8.68
2023-12-03T23:32:47.988Z,8.98
2023-12-03T23:35:15.615Z,8.93
2023-12-03T23:37:43.586Z,8.25
2023-12-03T23:40:11.230Z,7.70
2023-12-03T23:42:38.762Z,7.85
2023-12-03T23:45:06.535Z,9.38
2023-12-03T23:47:34.126Z,0.80
2023-12-03T23:50:02.067Z,8.52
2023-12-03T23:52:29.554Z,8.30
2023-12-03T23:54:56.944Z,8.82
2023-12-03T23:57:24.564Z,7.72
2023-12-03T23:59:52.853Z,7.88
